地図

経路データ

SID SEASON NUMBER BASIN SUBBASIN NAME ISO_TIME NATURE LAT LON WMO_WIND WMO_PRES WMO_AGENCY TRACK_TYPE DIST2LAND LANDFALL IFLAG USA_AGENCY USA_ATCF_ID USA_LAT USA_LON USA_RECORD USA_STATUS USA_WIND USA_PRES USA_SSHS USA_R34_NE USA_R34_SE USA_R34_SW USA_R34_NW USA_R50_NE USA_R50_SE USA_R50_SW USA_R50_NW USA_R64_NE USA_R64_SE USA_R64_SW USA_R64_NW USA_POCI USA_ROCI USA_RMW USA_EYE TOKYO_LAT TOKYO_LON TOKYO_GRADE TOKYO_WIND TOKYO_PRES TOKYO_R50_DIR TOKYO_R50_LONG TOKYO_R50_SHORT TOKYO_R30_DIR TOKYO_R30_LONG TOKYO_R30_SHORT TOKYO_LAND CMA_LAT CMA_LON CMA_CAT CMA_WIND CMA_PRES HKO_LAT HKO_LON HKO_CAT HKO_WIND HKO_PRES NEWDELHI_LAT NEWDELHI_LON NEWDELHI_GRADE NEWDELHI_WIND NEWDELHI_PRES NEWDELHI_CI NEWDELHI_DP NEWDELHI_POCI REUNION_LAT REUNION_LON REUNION_TYPE REUNION_WIND REUNION_PRES REUNION_TNUM REUNION_CI REUNION_RMW REUNION_R34_NE REUNION_R34_SE REUNION_R34_SW REUNION_R34_NW REUNION_R50_NE REUNION_R50_SE REUNION_R50_SW REUNION_R50_NW REUNION_R64_NE REUNION_R64_SE REUNION_R64_SW REUNION_R64_NW BOM_LAT BOM_LON BOM_TYPE BOM_WIND BOM_PRES BOM_TNUM BOM_CI BOM_RMW BOM_R34_NE BOM_R34_SE BOM_R34_SW BOM_R34_NW BOM_R50_NE BOM_R50_SE BOM_R50_SW BOM_R50_NW BOM_R64_NE BOM_R64_SE BOM_R64_SW BOM_R64_NW BOM_ROCI BOM_POCI BOM_EYE BOM_POS_METHOD BOM_PRES_METHOD NADI_LAT NADI_LON NADI_CAT NADI_WIND NADI_PRES WELLINGTON_LAT WELLINGTON_LON WELLINGTON_WIND WELLINGTON_PRES DS824_LAT DS824_LON DS824_STAGE DS824_WIND DS824_PRES TD9636_LAT TD9636_LON TD9636_STAGE TD9636_WIND TD9636_PRES TD9635_LAT TD9635_LON TD9635_WIND TD9635_PRES TD9635_ROCI NEUMANN_LAT NEUMANN_LON NEUMANN_CLASS NEUMANN_WIND NEUMANN_PRES MLC_LAT MLC_LON MLC_CLASS MLC_WIND MLC_PRES USA_GUST BOM_GUST BOM_GUST_PER REUNION_GUST REUNION_GUST_PER USA_SEAHGT USA_SEARAD_NE USA_SEARAD_SE USA_SEARAD_SW USA_SEARAD_NW STORM_SPEED STORM_DIR
1870310N28324 1870 30 NA NA NOT_NAMED 1870-11-05 12:00:00 TS 28.0000 -36.0000 main 1878 1878 _____________O -1 28.0000 -36.0000 TD 30 10 241
1870310N28324 1870 30 NA NA NOT_NAMED 1870-11-05 15:00:00 TS 27.7504 -36.5105 main 1929 1929 _____________P -1 27.7504 -36.5105 TD 30 10 241
1870310N28324 1870 30 NA NA NOT_NAMED 1870-11-05 18:00:00 TS 27.5000 -37.0000 main 1982 1982 _____________O -1 27.5000 -37.0000 TD 30 10 239
1870310N28324 1870 30 NA NA NOT_NAMED 1870-11-05 21:00:00 TS 27.2498 -37.4572 main 2036 2036 _____________P -1 27.2498 -37.4572 TD 32 9 238
1870310N28324 1870 30 NA NA NOT_NAMED 1870-11-06 00:00:00 TS 27.0000 -37.9000 main 2078 2078 _____________O -1 27.0000 -37.9000 TS 35 9 238
1870310N28324 1870 30 NA NA NOT_NAMED 1870-11-06 03:00:00 TS 26.7498 -38.3423 main 2123 2123 _____________P -1 26.7498 -38.3423 TS 35 9 238
1870310N28324 1870 30 NA NA NOT_NAMED 1870-11-06 06:00:00 TS 26.5000 -38.8000 main 2175 2175 _____________O -1 26.5000 -38.8000 TS 35 10 238
1870310N28324 1870 30 NA NA NOT_NAMED 1870-11-06 09:00:00 TS 26.2197 -39.2777 main 2230 2230 _____________P -1 26.2197 -39.2777 TS 37 10 241
1870310N28324 1870 30 NA NA NOT_NAMED 1870-11-06 12:00:00 TS 26.0000 -39.8000 main 2284 2284 _____________O -1 26.0000 -39.8000 TS 40 10 253
1870310N28324 1870 30 NA NA NOT_NAMED 1870-11-06 15:00:00 TS 25.9199 -40.3846 main 2345 2345 _____________P -1 25.9199 -40.3846 TS 40 11 265
1870310N28324 1870 30 NA NA NOT_NAMED 1870-11-06 18:00:00 TS 25.9000 -41.0000 main 2403 2403 _____________O -1 25.9000 -41.0000 TS 40 11 266
1870310N28324 1870 30 NA NA NOT_NAMED 1870-11-06 21:00:00 TS 25.8423 -41.6001 main 2464 2464 _____________P -1 25.8423 -41.6001 TS 42 11 265
1870310N28324 1870 30 NA NA NOT_NAMED 1870-11-07 00:00:00 TS 25.8000 -42.2000 main 2511 2485 _____________O -1 25.8000 -42.2000 TS 45 11 267
1870310N28324 1870 30 NA NA NOT_NAMED 1870-11-07 03:00:00 TS 25.7923 -42.8074 main 2485 2427 _____________P -1 25.7923 -42.8074 TS 45 11 270
1870310N28324 1870 30 NA NA NOT_NAMED 1870-11-07 06:00:00 TS 25.8000 -43.4000 main 2427 2369 _____________O -1 25.8000 -43.4000 TS 45 11 270
1870310N28324 1870 30 NA NA NOT_NAMED 1870-11-07 09:00:00 TS 25.7851 -44.0026 main 2369 2321 _____________P -1 25.7851 -44.0026 TS 45 10 270
1870310N28324 1870 30 NA NA NOT_NAMED 1870-11-07 12:00:00 TS 25.8000 -44.5000 main 2321 2292 _____________O -1 25.8000 -44.5000 TS 45 7 276
1870310N28324 1870 30 NA NA NOT_NAMED 1870-11-07 15:00:00 TS 25.8621 -44.7951 main 2296 2280 _____________P -1 25.8621 -44.7951 TS 45 5 294
1870310N28324 1870 30 NA NA NOT_NAMED 1870-11-07 18:00:00 TS 26.0000 -45.0000 main 2280 2264 _____________O -1 26.0000 -45.0000 TS 45 5 312
1870310N28324 1870 30 NA NA NOT_NAMED 1870-11-07 21:00:00 TS 26.2275 -45.2500 main 2268 2250 _____________P -1 26.2275 -45.2500 TS 47 7 318
1870310N28324 1870 30 NA NA NOT_NAMED 1870-11-08 00:00:00 TS 26.5000 -45.5000 main 2250 2239 _____________O -1 26.5000 -45.5000 TS 50 7 319
1870310N28324 1870 30 NA NA NOT_NAMED 1870-11-08 03:00:00 TS 26.7500 -45.7501 main 2230 2223 _____________P -1 26.7500 -45.7501 TS 50 7 318
1870310N28324 1870 30 NA NA NOT_NAMED 1870-11-08 06:00:00 TS 27.0000 -46.0000 main 2223 2195 _____________O -1 27.0000 -46.0000 TS 50 7 307
1870310N28324 1870 30 NA NA NOT_NAMED 1870-11-08 09:00:00 TS 27.1673 -46.3833 main 2195 2186 _____________P -1 27.1673 -46.3833 TS 52 7 318
1870310N28324 1870 30 NA NA NOT_NAMED 1870-11-08 12:00:00 TS 27.5000 -46.5000 main 2199 2142 _____________O -1 27.5000 -46.5000 TS 55 11 19
1870310N28324 1870 30 NA NA NOT_NAMED 1870-11-08 15:00:00 TS 28.2183 -45.9796 main 2142 2068 _____________P -1 28.2183 -45.9796 TS 57 20 36
1870310N28324 1870 30 NA NA NOT_NAMED 1870-11-08 18:00:00 TS 29.1000 -45.2000 main 2068 2001 _____________O -1 29.1000 -45.2000 TS 60 21 36
1870310N28324 1870 30 NA NA NOT_NAMED 1870-11-08 21:00:00 TS 29.8995 -44.5987 main 2001 1937 _____________P -1 29.8995 -44.5987 TS 60 19 33
1870310N28324 1870 30 NA NA NOT_NAMED 1870-11-09 00:00:00 TS 30.7000 -44.0000 main 1937 1877 _____________O -1 30.7000 -44.0000 TS 60 19 34
1870310N28324 1870 30 NA NA NOT_NAMED 1870-11-09 03:00:00 TS 31.5074 -43.3494 main 1881 1824 _____________P -1 31.5074 -43.3494 TS 62 20 35
1870310N28324 1870 30 NA NA NOT_NAMED 1870-11-09 06:00:00 TS 32.3000 -42.7000 main 1824 1770 _____________O -1 32.3000 -42.7000 HU 65 19 34
1870310N28324 1870 30 NA NA NOT_NAMED 1870-11-09 09:00:00 TS 33.1023 -42.0774 main 1770 1730 _____________P -1 33.1023 -42.0774 HU 65 18 34
1870310N28324 1870 30 NA NA NOT_NAMED 1870-11-09 12:00:00 TS 33.8000 -41.5000 main 1730 1708 _____________O -1 33.8000 -41.5000 HU 65 15 37
1870310N28324 1870 30 NA NA NOT_NAMED 1870-11-09 15:00:00 TS 34.2946 -40.9834 main 1708 1691 _____________P -1 34.2946 -40.9834 HU 65 12 43
1870310N28324 1870 30 NA NA NOT_NAMED 1870-11-09 18:00:00 TS 34.7000 -40.5000 main 1696 1681 _____________O -1 34.7000 -40.5000 HU 65 12 43
1870310N28324 1870 30 NA NA NOT_NAMED 1870-11-09 21:00:00 TS 35.1498 -39.9995 main 1687 1664 _____________P -1 35.1498 -39.9995 HU 65 12 42
1870310N28324 1870 30 NA NA NOT_NAMED 1870-11-10 00:00:00 TS 35.6000 -39.5000 main 1670 1659 _____________O -1 35.6000 -39.5000 HU 65 12 42
1870310N28324 1870 30 NA NA NOT_NAMED 1870-11-10 03:00:00 TS 36.0423 -38.9993 main 1664 1652 _____________P -1 36.0423 -38.9993 HU 65 12 42
1870310N28324 1870 30 NA NA NOT_NAMED 1870-11-10 06:00:00 TS 36.5000 -38.5000 main 1652 1643 _____________O -1 36.5000 -38.5000 HU 65 12 40
1870310N28324 1870 30 NA NA NOT_NAMED 1870-11-10 09:00:00 TS 36.9923 -37.9995 main 1643 1635 _____________P -1 36.9923 -37.9995 HU 65 13 39
1870310N28324 1870 30 NA NA NOT_NAMED 1870-11-10 12:00:00 TS 37.5000 -37.5000 main 1635 1629 _____________O -1 37.5000 -37.5000 HU 65 13 38
1870310N28324 1870 30 NA NA NOT_NAMED 1870-11-10 15:00:00 TS 37.9998 -36.9993 main 1629 1625 _____________P -1 37.9998 -36.9993 HU 65 13 38
1870310N28324 1870 30 NA NA NOT_NAMED 1870-11-10 18:00:00 TS 38.5000 -36.5000 main 1625 1624 _____________O -1 38.5000 -36.5000 HU 65 13 38
1870310N28324 1870 30 NA NA NOT_NAMED 1870-11-10 21:00:00 TS 38.9998 -35.9993 main 1624 1624 _____________P -1 38.9998 -35.9993 HU 60 13 38
1870310N28324 1870 30 NA NA NOT_NAMED 1870-11-11 00:00:00 TS 39.5000 -35.5000 main 1625 1620 _____________O -1 39.5000 -35.5000 TS 55 14 36
1870310N28324 1870 30 NA NA NOT_NAMED 1870-11-11 03:00:00 TS 40.0977 -34.9565 main 1622 1622 _____________P -1 40.0977 -34.9565 TS 50 13 37
1870310N28324 1870 30 NA NA NOT_NAMED 1870-11-11 06:00:00 TS 40.5000 -34.5000 main 1633 1633 _____________O -1 40.5000 -34.5000 TS 45 7 55
1870310N28324 1870 30 NA NA NOT_NAMED 1870-11-11 09:00:00 TS 40.4696 -34.2538 main 1647 1647 _____________P -1 40.4696 -34.2538 TS 42 4 135
1870310N28324 1870 30 NA NA NOT_NAMED 1870-11-11 12:00:00 ET 40.2000 -34.1000 main 1680 1680 _____________O -1 40.2000 -34.1000 EX 40 6 153
1870310N28324 1870 30 NA NA NOT_NAMED 1870-11-11 15:00:00 ET 39.9375 -33.9001 main 1713 1713 _____________P -1 39.9375 -33.9001 EX 40 7 153
1870310N28324 1870 30 NA NA NOT_NAMED 1870-11-11 18:00:00 ET 39.6000 -33.7000 main 1745 1745 _____________O -1 39.6000 -33.7000 EX 40 8 157
1870310N28324 1870 30 NA NA NOT_NAMED 1870-11-11 21:00:00 ET 39.2150 -33.5001 main 1785 1785 _____________P -1 39.2150 -33.5001 EX 40 9 159
1870310N28324 1870 30 NA NA NOT_NAMED 1870-11-12 00:00:00 ET 38.8000 -33.3000 main 1824 1824 _____________O -1 38.8000 -33.3000 EX 40 9 159
1870310N28324 1870 30 NA NA NOT_NAMED 1870-11-12 03:00:00 ET 38.3925 -33.1002 main 1864 1841 _____________P -1 38.3925 -33.1002 EX 40 9 159
1870310N28324 1870 30 NA NA NOT_NAMED 1870-11-12 06:00:00 ET 38.0000 -32.9000 main 1841 1816 _____________O -1 38.0000 -32.9000 EX 40 8 161
1870310N28324 1870 30 NA NA NOT_NAMED 1870-11-12 09:00:00 ET 37.6566 -32.7842 main 1816 1771 _____________P -1 37.6566 -32.7842 EX 40 8 156
1870310N28324 1870 30 NA NA NOT_NAMED 1870-11-12 12:00:00 ET 37.3000 -32.5000 main 1771 1703 _____________O -1 37.3000 -32.5000 EX 40 11 136
1870310N28324 1870 30 NA NA NOT_NAMED 1870-11-12 15:00:00 ET 36.8657 -31.8317 main 1695 1606 _____________P -1 36.8657 -31.8317 EX 40 15 127
1870310N28324 1870 30 NA NA NOT_NAMED 1870-11-12 18:00:00 ET 36.4000 -31.0000 main 1606 1550 _____________O -1 36.4000 -31.0000 EX 40 13 127
1870310N28324 1870 30 NA NA NOT_NAMED 1870-11-12 21:00:00 ET 36.0619 -30.4869 main 1550 1452 _____________P -1 36.0619 -30.4869 EX 40 15 127
1870310N28324 1870 30 NA NA NOT_NAMED 1870-11-13 00:00:00 ET 35.5000 -29.5000 main 1439 1206 _____________O -1 35.5000 -29.5000 EX 40 32 125
1870310N28324 1870 30 NA NA NOT_NAMED 1870-11-13 03:00:00 ET 34.1965 -27.2611 main 1193 950 _____________P -1 34.1965 -27.2611 EX 40 45 124
1870310N28324 1870 30 NA NA NOT_NAMED 1870-11-13 06:00:00 ET 33.0000 -25.0000 main 942 844 _____________O -1 33.0000 -25.0000 EX 40 32 116
1870310N28324 1870 30 NA NA NOT_NAMED 1870-11-13 09:00:00 ET 32.7681 -23.8243 main 836 790 _____________P -1 32.7681 -23.8243 EX 40 17 90
1870310N28324 1870 30 NA NA NOT_NAMED 1870-11-13 12:00:00 ET 33.0000 -23.0000 main 790 744 _____________O -1 33.0000 -23.0000 EX 40 16 74
1870310N28324 1870 30 NA NA NOT_NAMED 1870-11-13 15:00:00 ET 33.2042 -22.0004 main 738 706 _____________P -1 33.2042 -22.0004 EX 40 17 73
1870310N28324 1870 30 NA NA NOT_NAMED 1870-11-13 18:00:00 ET 33.5000 -21.0000 main 704 683 _____________O -1 33.5000 -21.0000 EX 40 18 70
1870310N28324 1870 30 NA NA NOT_NAMED 1870-11-13 21:00:00 ET 33.7992 -19.9998 main 682 668 _____________P -1 33.7992 -19.9998 EX 40 18 70
1870310N28324 1870 30 NA NA NOT_NAMED 1870-11-14 00:00:00 ET 34.1000 -19.0000 main 671 668 _____________O -1 34.1000 -19.0000 EX 40 18 68
1870310N28324 1870 30 NA NA NOT_NAMED 1870-11-14 03:00:00 ET 34.4781 -17.9276 main 684 680 _____________P -1 34.4781 -17.9276 EX 40 17 73
1870310N28324 1870 30 NA NA NOT_NAMED 1870-11-14 06:00:00 ET 34.6000 -17.0000 main 682 624 _____________O -1 34.6000 -17.0000 EX 40 13 108
1870310N28324 1870 30 NA NA NOT_NAMED 1870-11-14 09:00:00 ET 34.0564 -16.3841 main 624 558 _____________P -1 34.0564 -16.3841 EX 40 14 143
1870310N28324 1870 30 NA NA NOT_NAMED 1870-11-14 12:00:00 ET 33.5000 -16.0000 main 558 558 _____________O -1 33.5000 -16.0000 EX 40 7 130
1870310N28324 1870 30 NA NA NOT_NAMED 1870-11-14 15:00:00 ET 33.5797 -15.7138 main 569 569 _____________P -1 33.5797 -15.7138 EX 40 6 46
1870310N28324 1870 30 NA NA NOT_NAMED 1870-11-14 18:00:00 ET 33.9000 -15.5000 main 596 581 _____________O -1 33.9000 -15.5000 EX 40 7 35
1870310N28324 1870 30 NA NA NOT_NAMED 1870-11-14 21:00:00 ET 34.1350 -15.2499 main 575 568 _____________P -1 34.1350 -15.2499 EX 40 6 40
1870310N28324 1870 30 NA NA NOT_NAMED 1870-11-15 00:00:00 ET 34.4000 -15.0000 main 568 559 _____________O -1 34.4000 -15.0000 EX 40 7 37
1870310N28324 1870 30 NA NA NOT_NAMED 1870-11-15 03:00:00 ET 34.6925 -14.7499 main 556 541 _____________P -1 34.6925 -14.7499 EX 40 7 34
1870310N28324 1870 30 NA NA NOT_NAMED 1870-11-15 06:00:00 ET 35.0000 -14.5000 main 541 511 _____________O -1 35.0000 -14.5000 EX 40 7 34
1870310N28324 1870 30 NA NA NOT_NAMED 1870-11-15 09:00:00 ET 35.2999 -14.2498 main 502 473 _____________P -1 35.2999 -14.2498 EX 40 7 34
1870310N28324 1870 30 NA NA NOT_NAMED 1870-11-15 12:00:00 ET 35.6000 -14.0000 main 473 445 _____________O -1 35.6000 -14.0000 EX 40 7 34
1870310N28324 1870 30 NA NA NOT_NAMED 1870-11-15 15:00:00 ET 35.8999 -13.7498 main 436 410 _____________P -1 35.8999 -13.7498 EX 40 7 34
1870310N28324 1870 30 NA NA NOT_NAMED 1870-11-15 18:00:00 ET 36.2000 -13.5000 main 410 386 _____________O -1 36.2000 -13.5000 EX 40 7 34
1870310N28324 1870 30 NA NA NOT_NAMED 1870-11-15 21:00:00 ET 36.4999 -13.2498 main 377 355 _____________P -1 36.4999 -13.2498 EX 40 7 34
1870310N28324 1870 30 NA NA NOT_NAMED 1870-11-16 00:00:00 ET 36.8000 -13.0000 main 355 336 _____________O -1 36.8000 -13.0000 EX 40 7 34
1870310N28324 1870 30 NA NA NOT_NAMED 1870-11-16 03:00:00 ET 37.0999 -12.7498 main 327 304 _____________P -1 37.0999 -12.7498 EX 40 7 34
1870310N28324 1870 30 NA NA NOT_NAMED 1870-11-16 06:00:00 ET 37.4000 -12.5000 main 304 272 _____________O -1 37.4000 -12.5000 EX 40 7 34
1870310N28324 1870 30 NA NA NOT_NAMED 1870-11-16 09:00:00 ET 37.7001 -12.2504 main 272 234 _____________P -1 37.7001 -12.2504 EX 40 7 33
1870310N28324 1870 30 NA NA NOT_NAMED 1870-11-16 12:00:00 ET 38.0000 -12.0000 main 234 _____________O -1 38.0000 -12.0000 EX 40 7 33

IBTrACS Databaseについて

本データベースは、米国NOAAが公開する1842年以降の世界の熱帯低気圧のベストトラックデータアーカイブInternational Best Track Archive for Climate Stewardship (IBTrACS)を、ウェブで閲覧しやすい形式に変換したものです。

最終更新日:2021-11-26